sensor_id;sensor_type;location;lat;lon;timestamp;P1;durP1;ratioP1;P2;durP2;ratioP2
53299;SDS011;39187;48.476;8.310;2023-05-16T00:02:05;16.37;;;14.97;;
53299;SDS011;39187;48.476;8.310;2023-05-16T00:04:31;16.83;;;15.23;;
53299;SDS011;39187;48.476;8.310;2023-05-16T00:06:57;16.30;;;15.07;;
53299;SDS011;39187;48.476;8.310;2023-05-16T00:09:22;12.97;;;12.07;;
53299;SDS011;39187;48.476;8.310;2023-05-16T00:11:48;16.87;;;15.33;;
53299;SDS011;39187;48.476;8.310;2023-05-16T00:14:14;18.77;;;16.00;;
53299;SDS011;39187;48.476;8.310;2023-05-16T00:16:39;16.13;;;14.73;;
53299;SDS011;39187;48.476;8.310;2023-05-16T00:19:05;19.60;;;16.23;;
53299;SDS011;39187;48.476;8.310;2023-05-16T00:21:31;17.13;;;15.40;;
53299;SDS011;39187;48.476;8.310;2023-05-16T00:23:57;14.67;;;13.57;;
53299;SDS011;39187;48.476;8.310;2023-05-16T00:26:23;15.53;;;14.13;;
53299;SDS011;39187;48.476;8.310;2023-05-16T00:28:48;18.23;;;15.50;;
53299;SDS011;39187;48.476;8.310;2023-05-16T00:31:14;15.73;;;14.43;;
53299;SDS011;39187;48.476;8.310;2023-05-16T00:33:39;16.57;;;15.07;;
53299;SDS011;39187;48.476;8.310;2023-05-16T00:36:05;17.80;;;16.20;;
53299;SDS011;39187;48.476;8.310;2023-05-16T00:38:30;26.03;;;16.80;;
53299;SDS011;39187;48.476;8.310;2023-05-16T00:40:56;18.90;;;17.20;;
53299;SDS011;39187;48.476;8.310;2023-05-16T00:43:21;17.53;;;15.73;;
53299;SDS011;39187;48.476;8.310;2023-05-16T00:45:47;17.30;;;15.80;;
53299;SDS011;39187;48.476;8.310;2023-05-16T00:48:13;16.90;;;15.30;;
53299;SDS011;39187;48.476;8.310;2023-05-16T00:50:39;17.30;;;15.47;;
53299;SDS011;39187;48.476;8.310;2023-05-16T00:53:05;17.00;;;15.40;;
53299;SDS011;39187;48.476;8.310;2023-05-16T00:55:31;19.10;;;16.93;;
53299;SDS011;39187;48.476;8.310;2023-05-16T00:57:57;18.57;;;16.67;;
53299;SDS011;39187;48.476;8.310;2023-05-16T01:00:23;19.10;;;17.30;;
53299;SDS011;39187;48.476;8.310;2023-05-16T01:02:50;18.40;;;16.57;;
53299;SDS011;39187;48.476;8.310;2023-05-16T01:05:17;16.50;;;14.37;;
53299;SDS011;39187;48.476;8.310;2023-05-16T01:07:44;17.13;;;15.43;;
53299;SDS011;39187;48.476;8.310;2023-05-16T01:10:09;17.80;;;16.03;;
53299;SDS011;39187;48.476;8.310;2023-05-16T01:12:57;18.13;;;15.70;;
53299;SDS011;39187;48.476;8.310;2023-05-16T01:16:06;15.97;;;14.53;;
53299;SDS011;39187;48.476;8.310;2023-05-16T01:21:08;18.47;;;16.87;;
53299;SDS011;39187;48.476;8.310;2023-05-16T01:26:23;21.00;;;18.23;;
53299;SDS011;39187;48.476;8.310;2023-05-16T01:28:52;18.90;;;17.20;;
53299;SDS011;39187;48.476;8.310;2023-05-16T01:31:18;18.60;;;16.67;;
53299;SDS011;39187;48.476;8.310;2023-05-16T01:33:45;19.70;;;17.80;;
53299;SDS011;39187;48.476;8.310;2023-05-16T01:47:38;22.93;;;20.60;;
53299;SDS011;39187;48.476;8.310;2023-05-16T01:52:57;25.00;;;22.07;;
53299;SDS011;39187;48.476;8.310;2023-05-16T01:55:45;25.87;;;23.10;;
53299;SDS011;39187;48.476;8.310;2023-05-16T01:58:13;25.40;;;21.20;;
53299;SDS011;39187;48.476;8.310;2023-05-16T02:00:41;35.00;;;24.77;;
53299;SDS011;39187;48.476;8.310;2023-05-16T02:03:07;34.50;;;26.77;;
53299;SDS011;39187;48.476;8.310;2023-05-16T02:05:33;37.63;;;29.43;;
53299;SDS011;39187;48.476;8.310;2023-05-16T02:07:59;34.53;;;28.80;;
53299;SDS011;39187;48.476;8.310;2023-05-16T02:10:25;40.13;;;29.10;;
53299;SDS011;39187;48.476;8.310;2023-05-16T02:12:51;41.00;;;29.37;;
53299;SDS011;39187;48.476;8.310;2023-05-16T02:15:17;43.07;;;30.10;;
53299;SDS011;39187;48.476;8.310;2023-05-16T02:17:43;43.47;;;31.70;;
53299;SDS011;39187;48.476;8.310;2023-05-16T02:20:09;45.17;;;33.87;;
53299;SDS011;39187;48.476;8.310;2023-05-16T02:22:35;41.77;;;32.20;;
53299;SDS011;39187;48.476;8.310;2023-05-16T02:25:03;47.63;;;34.00;;
53299;SDS011;39187;48.476;8.310;2023-05-16T02:27:30;45.83;;;33.77;;
53299;SDS011;39187;48.476;8.310;2023-05-16T02:29:56;55.30;;;33.47;;
53299;SDS011;39187;48.476;8.310;2023-05-16T02:32:21;48.50;;;31.87;;
53299;SDS011;39187;48.476;8.310;2023-05-16T02:34:47;47.67;;;33.33;;
53299;SDS011;39187;48.476;8.310;2023-05-16T02:37:13;54.17;;;32.83;;
53299;SDS011;39187;48.476;8.310;2023-05-16T02:39:38;46.23;;;34.47;;
53299;SDS011;39187;48.476;8.310;2023-05-16T02:42:05;44.13;;;32.47;;
53299;SDS011;39187;48.476;8.310;2023-05-16T02:44:31;46.30;;;31.40;;
53299;SDS011;39187;48.476;8.310;2023-05-16T02:46:57;48.00;;;36.23;;
53299;SDS011;39187;48.476;8.310;2023-05-16T02:49:22;49.87;;;34.97;;
53299;SDS011;39187;48.476;8.310;2023-05-16T02:51:48;48.43;;;33.47;;
53299;SDS011;39187;48.476;8.310;2023-05-16T02:54:13;49.10;;;34.20;;
53299;SDS011;39187;48.476;8.310;2023-05-16T02:56:39;45.47;;;32.83;;
53299;SDS011;39187;48.476;8.310;2023-05-16T02:59:05;47.07;;;34.30;;
53299;SDS011;39187;48.476;8.310;2023-05-16T03:01:30;42.87;;;31.87;;
53299;SDS011;39187;48.476;8.310;2023-05-16T03:03:56;42.03;;;33.57;;
53299;SDS011;39187;48.476;8.310;2023-05-16T03:06:21;42.27;;;32.10;;
53299;SDS011;39187;48.476;8.310;2023-05-16T03:08:47;45.63;;;33.07;;
53299;SDS011;39187;48.476;8.310;2023-05-16T03:11:13;45.30;;;33.53;;
53299;SDS011;39187;48.476;8.310;2023-05-16T03:13:39;47.40;;;34.77;;
53299;SDS011;39187;48.476;8.310;2023-05-16T03:16:05;50.60;;;36.53;;
53299;SDS011;39187;48.476;8.310;2023-05-16T03:18:31;47.70;;;36.30;;
53299;SDS011;39187;48.476;8.310;2023-05-16T03:20:57;50.53;;;34.50;;
53299;SDS011;39187;48.476;8.310;2023-05-16T03:23:23;49.87;;;34.97;;
53299;SDS011;39187;48.476;8.310;2023-05-16T03:25:49;43.80;;;31.53;;
53299;SDS011;39187;48.476;8.310;2023-05-16T03:28:15;54.00;;;34.17;;
53299;SDS011;39187;48.476;8.310;2023-05-16T03:30:44;52.60;;;35.47;;
53299;SDS011;39187;48.476;8.310;2023-05-16T03:33:10;43.60;;;30.93;;
53299;SDS011;39187;48.476;8.310;2023-05-16T03:35:35;52.17;;;35.27;;
53299;SDS011;39187;48.476;8.310;2023-05-16T03:38:02;48.93;;;32.20;;
53299;SDS011;39187;48.476;8.310;2023-05-16T03:40:28;46.23;;;33.53;;
53299;SDS011;39187;48.476;8.310;2023-05-16T03:42:53;50.80;;;33.87;;
53299;SDS011;39187;48.476;8.310;2023-05-16T03:45:19;51.77;;;37.40;;
53299;SDS011;39187;48.476;8.310;2023-05-16T03:47:45;52.87;;;35.03;;
53299;SDS011;39187;48.476;8.310;2023-05-16T03:50:10;52.83;;;35.93;;
53299;SDS011;39187;48.476;8.310;2023-05-16T03:52:36;51.00;;;35.10;;
53299;SDS011;39187;48.476;8.310;2023-05-16T03:55:02;50.87;;;33.60;;
53299;SDS011;39187;48.476;8.310;2023-05-16T03:57:31;48.77;;;33.93;;
53299;SDS011;39187;48.476;8.310;2023-05-16T03:59:57;61.83;;;35.37;;
53299;SDS011;39187;48.476;8.310;2023-05-16T04:02:23;58.57;;;36.23;;
53299;SDS011;39187;48.476;8.310;2023-05-16T04:04:49;58.97;;;36.83;;
53299;SDS011;39187;48.476;8.310;2023-05-16T04:07:15;58.83;;;37.50;;
53299;SDS011;39187;48.476;8.310;2023-05-16T04:09:40;62.93;;;36.97;;
53299;SDS011;39187;48.476;8.310;2023-05-16T04:12:06;67.87;;;38.20;;
53299;SDS011;39187;48.476;8.310;2023-05-16T04:14:32;71.13;;;40.03;;
53299;SDS011;39187;48.476;8.310;2023-05-16T04:16:59;73.10;;;39.80;;
53299;SDS011;39187;48.476;8.310;2023-05-16T04:19:24;57.37;;;36.77;;
53299;SDS011;39187;48.476;8.310;2023-05-16T04:21:50;70.03;;;36.43;;
53299;SDS011;39187;48.476;8.310;2023-05-16T04:24:16;64.60;;;38.13;;
53299;SDS011;39187;48.476;8.310;2023-05-16T04:26:42;66.23;;;37.83;;
53299;SDS011;39187;48.476;8.310;2023-05-16T04:29:08;65.20;;;35.50;;
53299;SDS011;39187;48.476;8.310;2023-05-16T04:31:33;63.03;;;35.00;;
53299;SDS011;39187;48.476;8.310;2023-05-16T04:33:59;68.47;;;38.83;;
53299;SDS011;39187;48.476;8.310;2023-05-16T04:36:25;65.27;;;36.90;;
53299;SDS011;39187;48.476;8.310;2023-05-16T04:38:54;69.50;;;36.40;;
53299;SDS011;39187;48.476;8.310;2023-05-16T04:41:20;56.93;;;32.60;;
53299;SDS011;39187;48.476;8.310;2023-05-16T04:43:47;54.57;;;32.17;;
53299;SDS011;39187;48.476;8.310;2023-05-16T04:46:12;56.57;;;31.47;;
53299;SDS011;39187;48.476;8.310;2023-05-16T04:48:39;48.20;;;29.23;;
53299;SDS011;39187;48.476;8.310;2023-05-16T04:51:05;49.87;;;29.47;;
53299;SDS011;39187;48.476;8.310;2023-05-16T04:53:31;39.10;;;25.43;;
53299;SDS011;39187;48.476;8.310;2023-05-16T04:55:56;45.70;;;25.27;;
53299;SDS011;39187;48.476;8.310;2023-05-16T04:58:22;50.47;;;28.30;;
53299;SDS011;39187;48.476;8.310;2023-05-16T05:00:48;41.80;;;26.43;;
53299;SDS011;39187;48.476;8.310;2023-05-16T05:03:15;40.17;;;23.90;;
53299;SDS011;39187;48.476;8.310;2023-05-16T05:05:42;38.67;;;23.80;;
53299;SDS011;39187;48.476;8.310;2023-05-16T05:08:07;34.70;;;21.90;;
53299;SDS011;39187;48.476;8.310;2023-05-16T05:10:33;37.80;;;22.20;;
53299;SDS011;39187;48.476;8.310;2023-05-16T05:12:59;35.73;;;21.87;;
53299;SDS011;39187;48.476;8.310;2023-05-16T05:15:25;34.57;;;20.87;;
53299;SDS011;39187;48.476;8.310;2023-05-16T05:17:50;43.33;;;20.33;;
53299;SDS011;39187;48.476;8.310;2023-05-16T05:20:16;34.40;;;19.50;;
53299;SDS011;39187;48.476;8.310;2023-05-16T05:22:41;30.67;;;20.43;;
53299;SDS011;39187;48.476;8.310;2023-05-16T05:25:07;41.90;;;19.43;;
53299;SDS011;39187;48.476;8.310;2023-05-16T05:27:33;69.80;;;21.97;;
53299;SDS011;39187;48.476;8.310;2023-05-16T05:29:58;107.07;;;21.33;;
53299;SDS011;39187;48.476;8.310;2023-05-16T05:32:24;44.00;;;18.63;;
53299;SDS011;39187;48.476;8.310;2023-05-16T05:34:49;32.30;;;19.80;;
53299;SDS011;39187;48.476;8.310;2023-05-16T05:37:15;136.27;;;23.47;;
53299;SDS011;39187;48.476;8.310;2023-05-16T05:39:40;163.90;;;24.27;;
53299;SDS011;39187;48.476;8.310;2023-05-16T05:42:06;90.50;;;22.37;;
53299;SDS011;39187;48.476;8.310;2023-05-16T05:44:31;181.57;;;24.60;;
53299;SDS011;39187;48.476;8.310;2023-05-16T05:46:57;66.83;;;20.43;;
53299;SDS011;39187;48.476;8.310;2023-05-16T05:49:23;40.43;;;20.60;;
53299;SDS011;39187;48.476;8.310;2023-05-16T05:51:50;86.03;;;21.17;;
53299;SDS011;39187;48.476;8.310;2023-05-16T05:54:19;114.47;;;23.20;;
53299;SDS011;39187;48.476;8.310;2023-05-16T05:56:44;175.67;;;25.70;;
53299;SDS011;39187;48.476;8.310;2023-05-16T05:59:10;49.67;;;16.97;;
53299;SDS011;39187;48.476;8.310;2023-05-16T06:01:36;25.07;;;14.70;;
53299;SDS011;39187;48.476;8.310;2023-05-16T06:04:01;135.90;;;19.40;;
53299;SDS011;39187;48.476;8.310;2023-05-16T06:06:27;66.80;;;16.67;;
53299;SDS011;39187;48.476;8.310;2023-05-16T06:08:53;20.20;;;15.70;;
53299;SDS011;39187;48.476;8.310;2023-05-16T06:11:19;31.03;;;16.90;;
53299;SDS011;39187;48.476;8.310;2023-05-16T06:13:45;31.27;;;14.30;;
53299;SDS011;39187;48.476;8.310;2023-05-16T06:16:11;20.53;;;13.97;;
53299;SDS011;39187;48.476;8.310;2023-05-16T06:18:36;45.67;;;15.67;;
53299;SDS011;39187;48.476;8.310;2023-05-16T06:21:02;29.53;;;12.50;;
53299;SDS011;39187;48.476;8.310;2023-05-16T06:23:28;52.73;;;13.53;;
53299;SDS011;39187;48.476;8.310;2023-05-16T06:25:53;54.93;;;13.30;;
53299;SDS011;39187;48.476;8.310;2023-05-16T06:28:19;21.93;;;13.70;;
53299;SDS011;39187;48.476;8.310;2023-05-16T06:30:44;48.87;;;13.97;;
53299;SDS011;39187;48.476;8.310;2023-05-16T06:33:12;29.43;;;13.90;;
53299;SDS011;39187;48.476;8.310;2023-05-16T06:35:39;93.17;;;16.70;;
53299;SDS011;39187;48.476;8.310;2023-05-16T06:38:04;133.63;;;21.43;;
53299;SDS011;39187;48.476;8.310;2023-05-16T06:40:30;395.50;;;36.40;;
53299;SDS011;39187;48.476;8.310;2023-05-16T06:42:55;275.90;;;28.23;;
53299;SDS011;39187;48.476;8.310;2023-05-16T06:45:22;370.53;;;29.50;;
53299;SDS011;39187;48.476;8.310;2023-05-16T06:47:48;257.57;;;26.20;;
53299;SDS011;39187;48.476;8.310;2023-05-16T06:50:13;238.27;;;25.67;;
53299;SDS011;39187;48.476;8.310;2023-05-16T06:52:39;117.27;;;21.70;;
53299;SDS011;39187;48.476;8.310;2023-05-16T06:55:06;369.80;;;29.83;;
53299;SDS011;39187;48.476;8.310;2023-05-16T06:57:31;33.33;;;16.07;;
53299;SDS011;39187;48.476;8.310;2023-05-16T06:59:57;52.00;;;19.93;;
53299;SDS011;39187;48.476;8.310;2023-05-16T07:02:22;63.10;;;19.20;;
53299;SDS011;39187;48.476;8.310;2023-05-16T07:04:48;44.63;;;17.60;;
53299;SDS011;39187;48.476;8.310;2023-05-16T07:07:13;118.40;;;20.90;;
53299;SDS011;39187;48.476;8.310;2023-05-16T07:09:40;31.07;;;15.90;;
53299;SDS011;39187;48.476;8.310;2023-05-16T07:12:05;575.50;;;38.70;;
53299;SDS011;39187;48.476;8.310;2023-05-16T07:14:31;59.00;;;15.87;;
53299;SDS011;39187;48.476;8.310;2023-05-16T07:16:57;182.00;;;20.60;;
53299;SDS011;39187;48.476;8.310;2023-05-16T07:19:22;26.63;;;14.93;;
53299;SDS011;39187;48.476;8.310;2023-05-16T07:21:48;258.83;;;21.10;;
53299;SDS011;39187;48.476;8.310;2023-05-16T07:24:13;363.70;;;23.67;;
53299;SDS011;39187;48.476;8.310;2023-05-16T07:26:39;43.20;;;10.97;;
53299;SDS011;39187;48.476;8.310;2023-05-16T07:29:04;72.83;;;11.37;;
53299;SDS011;39187;48.476;8.310;2023-05-16T07:31:30;27.40;;;11.10;;
53299;SDS011;39187;48.476;8.310;2023-05-16T07:33:55;39.77;;;11.00;;
53299;SDS011;39187;48.476;8.310;2023-05-16T07:36:21;27.57;;;11.80;;
53299;SDS011;39187;48.476;8.310;2023-05-16T07:38:47;18.97;;;11.87;;
53299;SDS011;39187;48.476;8.310;2023-05-16T07:41:12;57.23;;;14.80;;
53299;SDS011;39187;48.476;8.310;2023-05-16T07:43:38;14.97;;;12.60;;
53299;SDS011;39187;48.476;8.310;2023-05-16T07:46:03;20.53;;;12.43;;
53299;SDS011;39187;48.476;8.310;2023-05-16T07:48:29;19.70;;;14.87;;
53299;SDS011;39187;48.476;8.310;2023-05-16T07:50:55;40.70;;;16.30;;
53299;SDS011;39187;48.476;8.310;2023-05-16T07:53:20;21.73;;;15.10;;
53299;SDS011;39187;48.476;8.310;2023-05-16T07:55:47;30.10;;;15.00;;
53299;SDS011;39187;48.476;8.310;2023-05-16T07:58:13;21.30;;;12.20;;
53299;SDS011;39187;48.476;8.310;2023-05-16T08:00:39;30.90;;;12.80;;
53299;SDS011;39187;48.476;8.310;2023-05-16T08:03:04;42.47;;;13.80;;
53299;SDS011;39187;48.476;8.310;2023-05-16T08:05:30;186.47;;;17.73;;
53299;SDS011;39187;48.476;8.310;2023-05-16T08:07:56;113.13;;;16.57;;
53299;SDS011;39187;48.476;8.310;2023-05-16T08:10:22;38.37;;;14.70;;
53299;SDS011;39187;48.476;8.310;2023-05-16T08:12:48;46.77;;;13.70;;
53299;SDS011;39187;48.476;8.310;2023-05-16T08:15:14;126.00;;;17.07;;
53299;SDS011;39187;48.476;8.310;2023-05-16T08:17:39;253.67;;;20.70;;
53299;SDS011;39187;48.476;8.310;2023-05-16T08:20:05;199.80;;;19.63;;
53299;SDS011;39187;48.476;8.310;2023-05-16T08:22:32;170.13;;;18.47;;
53299;SDS011;39187;48.476;8.310;2023-05-16T08:24:58;35.53;;;15.33;;
53299;SDS011;39187;48.476;8.310;2023-05-16T08:27:25;317.20;;;24.80;;
53299;SDS011;39187;48.476;8.310;2023-05-16T08:29:51;49.57;;;11.77;;
53299;SDS011;39187;48.476;8.310;2023-05-16T08:32:17;238.57;;;20.80;;
53299;SDS011;39187;48.476;8.310;2023-05-16T08:34:42;163.93;;;15.87;;
53299;SDS011;39187;48.476;8.310;2023-05-16T08:37:08;351.40;;;25.23;;
53299;SDS011;39187;48.476;8.310;2023-05-16T08:39:34;423.70;;;22.83;;
53299;SDS011;39187;48.476;8.310;2023-05-16T08:41:59;172.43;;;17.63;;
53299;SDS011;39187;48.476;8.310;2023-05-16T08:44:27;125.57;;;14.83;;
53299;SDS011;39187;48.476;8.310;2023-05-16T08:46:53;116.03;;;16.27;;
53299;SDS011;39187;48.476;8.310;2023-05-16T08:49:19;402.73;;;27.53;;
53299;SDS011;39187;48.476;8.310;2023-05-16T08:51:46;408.80;;;28.23;;
53299;SDS011;39187;48.476;8.310;2023-05-16T08:54:12;764.73;;;42.17;;
53299;SDS011;39187;48.476;8.310;2023-05-16T08:56:42;346.27;;;23.77;;
53299;SDS011;39187;48.476;8.310;2023-05-16T08:59:09;394.17;;;25.30;;
53299;SDS011;39187;48.476;8.310;2023-05-16T09:01:36;843.77;;;48.43;;
53299;SDS011;39187;48.476;8.310;2023-05-16T09:04:02;178.77;;;15.43;;
53299;SDS011;39187;48.476;8.310;2023-05-16T09:06:29;712.53;;;42.20;;
53299;SDS011;39187;48.476;8.310;2023-05-16T09:08:55;420.47;;;24.70;;
53299;SDS011;39187;48.476;8.310;2023-05-16T09:11:21;286.23;;;20.40;;
53299;SDS011;39187;48.476;8.310;2023-05-16T09:13:47;375.30;;;22.37;;
53299;SDS011;39187;48.476;8.310;2023-05-16T09:16:14;771.70;;;43.10;;
53299;SDS011;39187;48.476;8.310;2023-05-16T09:18:45;711.30;;;39.00;;
53299;SDS011;39187;48.476;8.310;2023-05-16T09:21:19;351.20;;;19.83;;
53299;SDS011;39187;48.476;8.310;2023-05-16T09:23:47;640.97;;;38.47;;
53299;SDS011;39187;48.476;8.310;2023-05-16T09:26:13;444.90;;;27.43;;
53299;SDS011;39187;48.476;8.310;2023-05-16T09:28:39;613.10;;;36.00;;
53299;SDS011;39187;48.476;8.310;2023-05-16T09:31:26;179.13;;;15.87;;
53299;SDS011;39187;48.476;8.310;2023-05-16T09:33:52;363.83;;;20.40;;
53299;SDS011;39187;48.476;8.310;2023-05-16T09:36:18;720.20;;;39.40;;
53299;SDS011;39187;48.476;8.310;2023-05-16T09:38:43;672.63;;;41.37;;
53299;SDS011;39187;48.476;8.310;2023-05-16T09:41:09;163.07;;;14.23;;
53299;SDS011;39187;48.476;8.310;2023-05-16T09:43:37;509.30;;;31.23;;
53299;SDS011;39187;48.476;8.310;2023-05-16T09:46:04;746.73;;;48.23;;
53299;SDS011;39187;48.476;8.310;2023-05-16T09:48:31;747.97;;;43.93;;
53299;SDS011;39187;48.476;8.310;2023-05-16T09:50:57;614.77;;;36.90;;
53299;SDS011;39187;48.476;8.310;2023-05-16T09:53:31;60.57;;;12.83;;
53299;SDS011;39187;48.476;8.310;2023-05-16T09:55:58;693.27;;;41.17;;
53299;SDS011;39187;48.476;8.310;2023-05-16T09:58:29;748.33;;;43.63;;
53299;SDS011;39187;48.476;8.310;2023-05-16T10:00:55;629.50;;;36.23;;
53299;SDS011;39187;48.476;8.310;2023-05-16T10:03:22;396.27;;;28.80;;
53299;SDS011;39187;48.476;8.310;2023-05-16T10:05:48;823.57;;;51.70;;
53299;SDS011;39187;48.476;8.310;2023-05-16T10:08:14;731.97;;;46.73;;
53299;SDS011;39187;48.476;8.310;2023-05-16T10:10:40;728.27;;;47.00;;
53299;SDS011;39187;48.476;8.310;2023-05-16T10:13:06;515.27;;;38.37;;
53299;SDS011;39187;48.476;8.310;2023-05-16T10:15:35;561.13;;;38.10;;
53299;SDS011;39187;48.476;8.310;2023-05-16T10:18:01;471.20;;;30.00;;
53299;SDS011;39187;48.476;8.310;2023-05-16T10:20:28;636.20;;;43.20;;
53299;SDS011;39187;48.476;8.310;2023-05-16T10:22:55;323.00;;;22.33;;
53299;SDS011;39187;48.476;8.310;2023-05-16T10:25:28;712.00;;;44.87;;
53299;SDS011;39187;48.476;8.310;2023-05-16T10:27:58;756.30;;;44.10;;
53299;SDS011;39187;48.476;8.310;2023-05-16T10:30:24;939.27;;;51.27;;
53299;SDS011;39187;48.476;8.310;2023-05-16T10:32:49;550.97;;;34.00;;
53299;SDS011;39187;48.476;8.310;2023-05-16T10:35:16;899.00;;;52.73;;
53299;SDS011;39187;48.476;8.310;2023-05-16T10:37:41;648.17;;;43.97;;
53299;SDS011;39187;48.476;8.310;2023-05-16T10:40:08;516.80;;;31.53;;
53299;SDS011;39187;48.476;8.310;2023-05-16T10:42:34;1072.10;;;58.50;;
53299;SDS011;39187;48.476;8.310;2023-05-16T10:45:18;578.43;;;37.43;;
53299;SDS011;39187;48.476;8.310;2023-05-16T10:47:53;832.20;;;49.40;;
53299;SDS011;39187;48.476;8.310;2023-05-16T10:50:33;183.60;;;15.70;;
53299;SDS011;39187;48.476;8.310;2023-05-16T10:55:50;676.07;;;38.77;;
53299;SDS011;39187;48.476;8.310;2023-05-16T11:01:33;468.43;;;28.53;;
53299;SDS011;39187;48.476;8.310;2023-05-16T11:06:25;579.20;;;35.50;;
53299;SDS011;39187;48.476;8.310;2023-05-16T11:09:03;576.80;;;35.77;;
53299;SDS011;39187;48.476;8.310;2023-05-16T11:11:52;475.03;;;27.73;;
53299;SDS011;39187;48.476;8.310;2023-05-16T11:14:20;627.53;;;36.10;;
53299;SDS011;39187;48.476;8.310;2023-05-16T11:16:50;746.20;;;44.77;;
53299;SDS011;39187;48.476;8.310;2023-05-16T11:27:32;209.97;;;17.60;;
53299;SDS011;39187;48.476;8.310;2023-05-16T11:30:14;412.77;;;26.67;;
53299;SDS011;39187;48.476;8.310;2023-05-16T11:32:46;742.83;;;48.10;;
53299;SDS011;39187;48.476;8.310;2023-05-16T11:35:15;496.10;;;29.83;;
53299;SDS011;39187;48.476;8.310;2023-05-16T11:37:42;737.33;;;45.57;;
53299;SDS011;39187;48.476;8.310;2023-05-16T11:40:09;49.07;;;12.23;;
53299;SDS011;39187;48.476;8.310;2023-05-16T11:42:37;618.40;;;39.37;;
53299;SDS011;39187;48.476;8.310;2023-05-16T11:47:36;106.53;;;13.60;;
53299;SDS011;39187;48.476;8.310;2023-05-16T11:50:06;1081.67;;;68.00;;
53299;SDS011;39187;48.476;8.310;2023-05-16T11:52:36;674.70;;;42.10;;
53299;SDS011;39187;48.476;8.310;2023-05-16T11:55:05;859.67;;;51.00;;
53299;SDS011;39187;48.476;8.310;2023-05-16T11:57:32;450.77;;;27.63;;
53299;SDS011;39187;48.476;8.310;2023-05-16T12:00:02;120.67;;;12.97;;
53299;SDS011;39187;48.476;8.310;2023-05-16T12:02:38;477.10;;;32.93;;
53299;SDS011;39187;48.476;8.310;2023-05-16T12:05:07;603.30;;;38.73;;
53299;SDS011;39187;48.476;8.310;2023-05-16T12:07:33;1017.30;;;62.93;;
53299;SDS011;39187;48.476;8.310;2023-05-16T12:10:07;623.87;;;40.73;;
53299;SDS011;39187;48.476;8.310;2023-05-16T12:12:34;797.17;;;50.73;;
53299;SDS011;39187;48.476;8.310;2023-05-16T12:15:04;245.13;;;17.63;;
53299;SDS011;39187;48.476;8.310;2023-05-16T12:17:31;1057.20;;;66.47;;
53299;SDS011;39187;48.476;8.310;2023-05-16T12:19:57;837.83;;;51.73;;
53299;SDS011;39187;48.476;8.310;2023-05-16T12:22:24;881.40;;;56.37;;
53299;SDS011;39187;48.476;8.310;2023-05-16T12:24:50;204.70;;;12.70;;
53299;SDS011;39187;48.476;8.310;2023-05-16T12:27:22;1123.27;;;69.57;;
53299;SDS011;39187;48.476;8.310;2023-05-16T12:29:49;675.47;;;39.73;;
53299;SDS011;39187;48.476;8.310;2023-05-16T12:32:18;952.73;;;57.90;;
53299;SDS011;39187;48.476;8.310;2023-05-16T12:34:48;644.53;;;41.57;;
53299;SDS011;39187;48.476;8.310;2023-05-16T12:37:15;554.07;;;37.07;;
53299;SDS011;39187;48.476;8.310;2023-05-16T12:39:41;888.80;;;55.27;;
53299;SDS011;39187;48.476;8.310;2023-05-16T12:42:07;698.17;;;42.13;;
53299;SDS011;39187;48.476;8.310;2023-05-16T12:44:33;70.37;;;10.80;;
53299;SDS011;39187;48.476;8.310;2023-05-16T12:47:00;820.87;;;48.63;;
53299;SDS011;39187;48.476;8.310;2023-05-16T12:49:26;301.40;;;17.60;;
53299;SDS011;39187;48.476;8.310;2023-05-16T12:51:53;1139.23;;;74.10;;
53299;SDS011;39187;48.476;8.310;2023-05-16T12:54:20;621.03;;;35.00;;
53299;SDS011;39187;48.476;8.310;2023-05-16T12:56:49;1049.70;;;63.67;;
53299;SDS011;39187;48.476;8.310;2023-05-16T12:59:15;92.23;;;12.60;;
53299;SDS011;39187;48.476;8.310;2023-05-16T13:01:41;807.57;;;47.63;;
53299;SDS011;39187;48.476;8.310;2023-05-16T13:04:08;962.13;;;55.37;;
53299;SDS011;39187;48.476;8.310;2023-05-16T13:06:38;449.97;;;24.63;;
53299;SDS011;39187;48.476;8.310;2023-05-16T13:09:04;312.63;;;20.43;;
53299;SDS011;39187;48.476;8.310;2023-05-16T13:11:29;367.00;;;23.23;;
53299;SDS011;39187;48.476;8.310;2023-05-16T13:13:55;69.50;;;9.63;;
53299;SDS011;39187;48.476;8.310;2023-05-16T13:16:20;902.60;;;58.50;;
53299;SDS011;39187;48.476;8.310;2023-05-16T13:18:46;475.43;;;29.17;;
53299;SDS011;39187;48.476;8.310;2023-05-16T13:21:11;464.67;;;28.73;;
53299;SDS011;39187;48.476;8.310;2023-05-16T13:23:36;1117.90;;;77.43;;
53299;SDS011;39187;48.476;8.310;2023-05-16T13:26:02;731.80;;;44.30;;
53299;SDS011;39187;48.476;8.310;2023-05-16T13:28:29;1046.83;;;69.90;;
53299;SDS011;39187;48.476;8.310;2023-05-16T13:30:55;519.50;;;32.93;;
53299;SDS011;39187;48.476;8.310;2023-05-16T13:33:21;883.77;;;65.33;;
53299;SDS011;39187;48.476;8.310;2023-05-16T13:35:48;142.07;;;11.50;;
53299;SDS011;39187;48.476;8.310;2023-05-16T13:38:15;721.97;;;47.43;;
53299;SDS011;39187;48.476;8.310;2023-05-16T13:40:41;157.10;;;13.93;;
53299;SDS011;39187;48.476;8.310;2023-05-16T13:43:06;377.77;;;26.10;;
53299;SDS011;39187;48.476;8.310;2023-05-16T13:45:33;304.30;;;19.70;;
53299;SDS011;39187;48.476;8.310;2023-05-16T13:47:59;457.10;;;33.73;;
53299;SDS011;39187;48.476;8.310;2023-05-16T13:50:24;302.33;;;20.00;;
53299;SDS011;39187;48.476;8.310;2023-05-16T13:52:50;380.60;;;22.87;;
53299;SDS011;39187;48.476;8.310;2023-05-16T13:55:16;135.33;;;10.97;;
53299;SDS011;39187;48.476;8.310;2023-05-16T13:57:42;326.10;;;26.07;;
53299;SDS011;39187;48.476;8.310;2023-05-16T14:00:08;686.63;;;46.20;;
53299;SDS011;39187;48.476;8.310;2023-05-16T14:02:37;383.50;;;27.20;;
53299;SDS011;39187;48.476;8.310;2023-05-16T14:05:06;273.23;;;22.07;;
53299;SDS011;39187;48.476;8.310;2023-05-16T14:07:34;174.97;;;14.13;;
53299;SDS011;39187;48.476;8.310;2023-05-16T14:10:00;44.50;;;9.00;;
53299;SDS011;39187;48.476;8.310;2023-05-16T14:12:26;90.60;;;10.97;;
53299;SDS011;39187;48.476;8.310;2023-05-16T14:14:51;18.80;;;7.63;;
53299;SDS011;39187;48.476;8.310;2023-05-16T14:17:18;137.33;;;12.43;;
53299;SDS011;39187;48.476;8.310;2023-05-16T14:19:44;19.77;;;10.00;;
53299;SDS011;39187;48.476;8.310;2023-05-16T14:22:10;111.23;;;14.00;;
53299;SDS011;39187;48.476;8.310;2023-05-16T14:24:36;33.07;;;8.57;;
53299;SDS011;39187;48.476;8.310;2023-05-16T14:27:01;25.60;;;9.40;;
53299;SDS011;39187;48.476;8.310;2023-05-16T14:29:27;518.00;;;37.93;;
53299;SDS011;39187;48.476;8.310;2023-05-16T14:31:52;192.43;;;17.63;;
53299;SDS011;39187;48.476;8.310;2023-05-16T14:34:18;9.37;;;8.73;;
53299;SDS011;39187;48.476;8.310;2023-05-16T14:36:44;365.53;;;26.40;;
53299;SDS011;39187;48.476;8.310;2023-05-16T14:39:09;488.50;;;36.00;;
53299;SDS011;39187;48.476;8.310;2023-05-16T14:41:35;294.70;;;18.97;;
53299;SDS011;39187;48.476;8.310;2023-05-16T14:44:01;160.50;;;16.17;;
53299;SDS011;39187;48.476;8.310;2023-05-16T14:46:26;316.47;;;23.17;;
53299;SDS011;39187;48.476;8.310;2023-05-16T14:48:52;317.77;;;22.97;;
53299;SDS011;39187;48.476;8.310;2023-05-16T14:51:17;403.30;;;33.27;;
53299;SDS011;39187;48.476;8.310;2023-05-16T14:53:43;474.93;;;32.97;;